Atlantic Beach, South Carolina
Current Conditions -  °F | °C
As of 1:53 PM on Friday 31 Oct 2014 (Local Time) from KCRE Reporting Station
Few Clouds Few Clouds  
Wind Chill: 67°   Ceiling: Unl
Heat Index: 67°   Visibility: 10mi
Dew Point: 43°   Wind: 10mph
Humidity: 42%   Direction: 50°NE
Pressure: 29.81"   Gusts: NA
Location:  33.8371°N, 78.6471°W
Report Text: KCRE 311753Z 05009KT 10SM FEW049 19/06 A2981 RMK AO1 SLP095 T01940061 10200 20094 58030
Loading
Personal Weather Stations






























Interactive Weather Map
Tropical Storm Tracking
New forecast layout! Learn more

10-Day Weather Forecast

Advertisements
Track Severe Weather on mobile